sensor_id;sensor_type;location;lat;lon;timestamp;P1;durP1;ratioP1;P2;durP2;ratioP2
59984;SDS011;45843;47.532;18.660;2022-11-11T00:02:24;0.10;;;0.10;;
59984;SDS011;45843;47.532;18.660;2022-11-11T00:05:31;0.17;;;0.17;;
59984;SDS011;45843;47.532;18.660;2022-11-11T00:08:37;0.10;;;0.10;;
59984;SDS011;45843;47.532;18.660;2022-11-11T00:11:43;0.10;;;0.10;;
59984;SDS011;45843;47.532;18.660;2022-11-11T00:14:49;0.03;;;0.03;;
59984;SDS011;45843;47.532;18.660;2022-11-11T00:17:55;0.10;;;0.10;;
59984;SDS011;45843;47.532;18.660;2022-11-11T00:21:00;0.10;;;0.10;;
59984;SDS011;45843;47.532;18.660;2022-11-11T00:23:45;0.10;;;0.10;;
59984;SDS011;45843;47.532;18.660;2022-11-11T00:26:30;0.10;;;0.10;;
59984;SDS011;45843;47.532;18.660;2022-11-11T00:28:57;0.13;;;0.13;;
59984;SDS011;45843;47.532;18.660;2022-11-11T00:31:23;0.10;;;0.10;;
59984;SDS011;45843;47.532;18.660;2022-11-11T00:33:51;0.10;;;0.10;;
59984;SDS011;45843;47.532;18.660;2022-11-11T00:36:56;0.15;;;0.15;;
59984;SDS011;45843;47.532;18.660;2022-11-11T00:40:02;0.10;;;0.10;;
59984;SDS011;45843;47.532;18.660;2022-11-11T00:42:29;0.10;;;0.10;;
59984;SDS011;45843;47.532;18.660;2022-11-11T00:44:55;0.10;;;0.10;;
59984;SDS011;45843;47.532;18.660;2022-11-11T00:47:22;0.20;;;0.20;;
59984;SDS011;45843;47.532;18.660;2022-11-11T00:50:11;0.00;;;0.00;;
59984;SDS011;45843;47.532;18.660;2022-11-11T00:52:56;0.20;;;0.20;;
59984;SDS011;45843;47.532;18.660;2022-11-11T00:55:22;0.10;;;0.10;;
59984;SDS011;45843;47.532;18.660;2022-11-11T00:57:49;0.20;;;0.20;;
59984;SDS011;45843;47.532;18.660;2022-11-11T01:00:15;0.10;;;0.10;;
59984;SDS011;45843;47.532;18.660;2022-11-11T01:02:41;0.20;;;0.20;;
59984;SDS011;45843;47.532;18.660;2022-11-11T01:05:08;0.22;;;0.22;;
59984;SDS011;45843;47.532;18.660;2022-11-11T01:07:34;0.17;;;0.17;;
59984;SDS011;45843;47.532;18.660;2022-11-11T01:10:41;0.10;;;0.10;;
59984;SDS011;45843;47.532;18.660;2022-11-11T01:13:47;0.10;;;0.10;;
59984;SDS011;45843;47.532;18.660;2022-11-11T01:16:53;0.20;;;0.20;;
59984;SDS011;45843;47.532;18.660;2022-11-11T01:19:59;0.10;;;0.10;;
59984;SDS011;45843;47.532;18.660;2022-11-11T01:23:01;0.20;;;0.20;;
59984;SDS011;45843;47.532;18.660;2022-11-11T01:25:27;0.10;;;0.10;;
59984;SDS011;45843;47.532;18.660;2022-11-11T01:27:53;0.10;;;0.10;;
59984;SDS011;45843;47.532;18.660;2022-11-11T01:30:20;0.20;;;0.20;;
59984;SDS011;45843;47.532;18.660;2022-11-11T01:32:46;0.10;;;0.10;;
59984;SDS011;45843;47.532;18.660;2022-11-11T01:35:13;0.20;;;0.20;;
59984;SDS011;45843;47.532;18.660;2022-11-11T01:37:39;0.10;;;0.10;;
59984;SDS011;45843;47.532;18.660;2022-11-11T01:40:06;0.30;;;0.30;;
59984;SDS011;45843;47.532;18.660;2022-11-11T01:42:44;0.17;;;0.17;;
59984;SDS011;45843;47.532;18.660;2022-11-11T01:47:56;0.32;;;0.32;;
59984;SDS011;45843;47.532;18.660;2022-11-11T01:50:41;0.25;;;0.25;;
59984;SDS011;45843;47.532;18.660;2022-11-11T01:53:07;0.20;;;0.20;;
59984;SDS011;45843;47.532;18.660;2022-11-11T01:55:34;0.10;;;0.10;;
59984;SDS011;45843;47.532;18.660;2022-11-11T01:58:02;0.10;;;0.10;;
59984;SDS011;45843;47.532;18.660;2022-11-11T02:00:30;0.20;;;0.20;;
59984;SDS011;45843;47.532;18.660;2022-11-11T02:03:05;0.28;;;0.28;;
59984;SDS011;45843;47.532;18.660;2022-11-11T02:05:33;0.10;;;0.10;;
59984;SDS011;45843;47.532;18.660;2022-11-11T02:08:30;0.20;;;0.20;;
59984;SDS011;45843;47.532;18.660;2022-11-11T02:11:35;0.10;;;0.10;;
59984;SDS011;45843;47.532;18.660;2022-11-11T02:14:44;0.20;;;0.20;;
59984;SDS011;45843;47.532;18.660;2022-11-11T02:17:49;0.20;;;0.20;;
59984;SDS011;45843;47.532;18.660;2022-11-11T02:20:55;0.10;;;0.10;;
59984;SDS011;45843;47.532;18.660;2022-11-11T02:23:32;0.20;;;0.20;;
59984;SDS011;45843;47.532;18.660;2022-11-11T02:26:00;0.20;;;0.20;;
59984;SDS011;45843;47.532;18.660;2022-11-11T02:28:27;0.20;;;0.20;;
59984;SDS011;45843;47.532;18.660;2022-11-11T02:30:54;0.20;;;0.20;;
59984;SDS011;45843;47.532;18.660;2022-11-11T02:33:20;0.10;;;0.10;;
59984;SDS011;45843;47.532;18.660;2022-11-11T02:35:48;0.10;;;0.10;;
59984;SDS011;45843;47.532;18.660;2022-11-11T02:38:20;0.22;;;0.22;;
59984;SDS011;45843;47.532;18.660;2022-11-11T02:40:47;0.20;;;0.20;;
59984;SDS011;45843;47.532;18.660;2022-11-11T02:43:32;0.10;;;0.10;;
59984;SDS011;45843;47.532;18.660;2022-11-11T02:46:00;0.10;;;0.10;;
59984;SDS011;45843;47.532;18.660;2022-11-11T02:48:27;0.10;;;0.10;;
59984;SDS011;45843;47.532;18.660;2022-11-11T02:50:54;0.20;;;0.20;;
59984;SDS011;45843;47.532;18.660;2022-11-11T02:53:20;0.20;;;0.20;;
59984;SDS011;45843;47.532;18.660;2022-11-11T02:55:47;0.20;;;0.20;;
59984;SDS011;45843;47.532;18.660;2022-11-11T02:58:13;0.10;;;0.10;;
59984;SDS011;45843;47.532;18.660;2022-11-11T03:00:40;0.15;;;0.15;;
59984;SDS011;45843;47.532;18.660;2022-11-11T03:03:07;0.63;;;0.63;;
59984;SDS011;45843;47.532;18.660;2022-11-11T03:05:34;0.40;;;0.40;;
59984;SDS011;45843;47.532;18.660;2022-11-11T03:08:01;0.55;;;0.50;;
59984;SDS011;45843;47.532;18.660;2022-11-11T03:11:07;0.82;;;0.70;;
59984;SDS011;45843;47.532;18.660;2022-11-11T03:14:13;1.10;;;0.57;;
59984;SDS011;45843;47.532;18.660;2022-11-11T03:17:19;1.75;;;1.00;;
59984;SDS011;45843;47.532;18.660;2022-11-11T03:20:10;1.45;;;1.13;;
59984;SDS011;45843;47.532;18.660;2022-11-11T03:23:12;2.05;;;1.30;;
59984;SDS011;45843;47.532;18.660;2022-11-11T03:25:40;1.67;;;1.25;;
59984;SDS011;45843;47.532;18.660;2022-11-11T03:30:33;1.77;;;1.05;;
59984;SDS011;45843;47.532;18.660;2022-11-11T03:33:00;2.75;;;1.55;;
59984;SDS011;45843;47.532;18.660;2022-11-11T03:35:27;2.25;;;1.33;;
59984;SDS011;45843;47.532;18.660;2022-11-11T03:37:54;1.83;;;1.10;;
59984;SDS011;45843;47.532;18.660;2022-11-11T03:40:39;2.53;;;1.40;;
59984;SDS011;45843;47.532;18.660;2022-11-11T03:43:05;1.08;;;1.02;;
59984;SDS011;45843;47.532;18.660;2022-11-11T03:45:32;2.33;;;1.55;;
59984;SDS011;45843;47.532;18.660;2022-11-11T03:47:58;2.10;;;1.40;;
59984;SDS011;45843;47.532;18.660;2022-11-11T03:50:25;1.08;;;0.95;;
59984;SDS011;45843;47.532;18.660;2022-11-11T03:52:51;1.30;;;0.98;;
59984;SDS011;45843;47.532;18.660;2022-11-11T03:55:18;3.10;;;1.60;;
59984;SDS011;45843;47.532;18.660;2022-11-11T03:57:44;2.72;;;1.45;;
59984;SDS011;45843;47.532;18.660;2022-11-11T04:00:12;1.08;;;0.93;;
59984;SDS011;45843;47.532;18.660;2022-11-11T04:02:39;2.60;;;1.60;;
59984;SDS011;45843;47.532;18.660;2022-11-11T04:05:24;1.58;;;1.10;;
59984;SDS011;45843;47.532;18.660;2022-11-11T04:08:13;1.73;;;1.15;;
59984;SDS011;45843;47.532;18.660;2022-11-11T04:11:20;2.63;;;1.17;;
59984;SDS011;45843;47.532;18.660;2022-11-11T04:14:23;1.35;;;1.25;;
59984;SDS011;45843;47.532;18.660;2022-11-11T04:17:28;0.80;;;0.70;;
59984;SDS011;45843;47.532;18.660;2022-11-11T04:20:34;0.47;;;0.47;;
59984;SDS011;45843;47.532;18.660;2022-11-11T04:23:20;1.20;;;0.90;;
59984;SDS011;45843;47.532;18.660;2022-11-11T04:25:46;0.80;;;0.60;;
59984;SDS011;45843;47.532;18.660;2022-11-11T04:28:17;1.38;;;0.80;;
59984;SDS011;45843;47.532;18.660;2022-11-11T04:31:02;0.90;;;0.60;;
59984;SDS011;45843;47.532;18.660;2022-11-11T04:33:29;0.77;;;0.73;;
59984;SDS011;45843;47.532;18.660;2022-11-11T04:35:55;0.30;;;0.30;;
59984;SDS011;45843;47.532;18.660;2022-11-11T04:38:25;0.73;;;0.73;;
59984;SDS011;45843;47.532;18.660;2022-11-11T04:41:10;0.75;;;0.50;;
59984;SDS011;45843;47.532;18.660;2022-11-11T04:43:37;0.47;;;0.47;;
59984;SDS011;45843;47.532;18.660;2022-11-11T04:46:22;0.60;;;0.60;;
59984;SDS011;45843;47.532;18.660;2022-11-11T04:48:48;0.68;;;0.50;;
59984;SDS011;45843;47.532;18.660;2022-11-11T04:51:15;1.05;;;0.88;;
59984;SDS011;45843;47.532;18.660;2022-11-11T04:53:41;0.20;;;0.20;;
59984;SDS011;45843;47.532;18.660;2022-11-11T04:56:08;0.70;;;0.70;;
59984;SDS011;45843;47.532;18.660;2022-11-11T04:58:53;0.90;;;0.60;;
59984;SDS011;45843;47.532;18.660;2022-11-11T05:01:39;0.95;;;0.60;;
59984;SDS011;45843;47.532;18.660;2022-11-11T05:04:24;1.15;;;1.00;;
59984;SDS011;45843;47.532;18.660;2022-11-11T05:06:51;0.93;;;0.80;;
59984;SDS011;45843;47.532;18.660;2022-11-11T05:09:36;1.92;;;1.23;;
59984;SDS011;45843;47.532;18.660;2022-11-11T05:12:45;0.63;;;0.63;;
59984;SDS011;45843;47.532;18.660;2022-11-11T05:15:47;0.45;;;0.45;;
59984;SDS011;45843;47.532;18.660;2022-11-11T05:18:52;0.57;;;0.57;;
59984;SDS011;45843;47.532;18.660;2022-11-11T05:22:06;0.73;;;0.70;;
59984;SDS011;45843;47.532;18.660;2022-11-11T05:24:34;0.20;;;0.20;;
59984;SDS011;45843;47.532;18.660;2022-11-11T05:27:19;0.25;;;0.25;;
59984;SDS011;45843;47.532;18.660;2022-11-11T05:29:46;0.50;;;0.50;;
59984;SDS011;45843;47.532;18.660;2022-11-11T05:32:16;0.10;;;0.10;;
59984;SDS011;45843;47.532;18.660;2022-11-11T05:34:43;0.82;;;0.65;;
59984;SDS011;45843;47.532;18.660;2022-11-11T05:37:09;1.98;;;1.05;;
59984;SDS011;45843;47.532;18.660;2022-11-11T05:39:36;1.65;;;1.20;;
59984;SDS011;45843;47.532;18.660;2022-11-11T05:42:02;1.65;;;1.10;;
59984;SDS011;45843;47.532;18.660;2022-11-11T05:44:28;0.85;;;0.82;;
59984;SDS011;45843;47.532;18.660;2022-11-11T05:46:55;1.23;;;0.68;;
59984;SDS011;45843;47.532;18.660;2022-11-11T05:49:21;1.45;;;1.05;;
59984;SDS011;45843;47.532;18.660;2022-11-11T05:51:49;1.88;;;1.10;;
59984;SDS011;45843;47.532;18.660;2022-11-11T05:54:16;2.15;;;1.10;;
59984;SDS011;45843;47.532;18.660;2022-11-11T05:56:43;1.23;;;0.82;;
59984;SDS011;45843;47.532;18.660;2022-11-11T05:59:09;1.55;;;1.10;;
59984;SDS011;45843;47.532;18.660;2022-11-11T06:01:36;1.98;;;1.05;;
59984;SDS011;45843;47.532;18.660;2022-11-11T06:04:03;2.47;;;1.15;;
59984;SDS011;45843;47.532;18.660;2022-11-11T06:06:30;1.95;;;1.15;;
59984;SDS011;45843;47.532;18.660;2022-11-11T06:08:56;1.75;;;1.00;;
59984;SDS011;45843;47.532;18.660;2022-11-11T06:12:02;0.65;;;0.52;;
59984;SDS011;45843;47.532;18.660;2022-11-11T06:15:09;1.67;;;1.00;;
59984;SDS011;45843;47.532;18.660;2022-11-11T06:18:15;1.77;;;1.30;;
59984;SDS011;45843;47.532;18.660;2022-11-11T06:21:21;2.05;;;1.20;;
59984;SDS011;45843;47.532;18.660;2022-11-11T06:23:47;4.13;;;1.85;;
59984;SDS011;45843;47.532;18.660;2022-11-11T06:26:14;0.70;;;0.65;;
59984;SDS011;45843;47.532;18.660;2022-11-11T06:31:08;0.63;;;0.60;;
59984;SDS011;45843;47.532;18.660;2022-11-11T06:33:35;0.90;;;0.70;;
59984;SDS011;45843;47.532;18.660;2022-11-11T06:36:02;1.88;;;1.33;;
59984;SDS011;45843;47.532;18.660;2022-11-11T06:38:29;3.53;;;1.67;;
59984;SDS011;45843;47.532;18.660;2022-11-11T06:40:55;2.30;;;1.27;;
59984;SDS011;45843;47.532;18.660;2022-11-11T06:43:22;2.30;;;1.40;;
59984;SDS011;45843;47.532;18.660;2022-11-11T06:45:49;1.15;;;1.05;;
59984;SDS011;45843;47.532;18.660;2022-11-11T06:48:15;1.40;;;1.00;;
59984;SDS011;45843;47.532;18.660;2022-11-11T06:50:42;1.55;;;1.00;;
59984;SDS011;45843;47.532;18.660;2022-11-11T06:53:09;1.67;;;0.95;;
59984;SDS011;45843;47.532;18.660;2022-11-11T06:55:36;1.20;;;1.00;;
59984;SDS011;45843;47.532;18.660;2022-11-11T06:58:04;1.15;;;1.08;;
59984;SDS011;45843;47.532;18.660;2022-11-11T07:00:30;1.55;;;1.10;;
59984;SDS011;45843;47.532;18.660;2022-11-11T07:02:57;1.00;;;0.93;;
59984;SDS011;45843;47.532;18.660;2022-11-11T07:05:23;1.67;;;1.10;;
59984;SDS011;45843;47.532;18.660;2022-11-11T07:07:50;0.75;;;0.55;;
59984;SDS011;45843;47.532;18.660;2022-11-11T07:10:16;0.70;;;0.52;;
59984;SDS011;45843;47.532;18.660;2022-11-11T07:12:42;0.45;;;0.45;;
59984;SDS011;45843;47.532;18.660;2022-11-11T07:15:09;0.57;;;0.57;;
59984;SDS011;45843;47.532;18.660;2022-11-11T07:17:35;0.43;;;0.43;;
59984;SDS011;45843;47.532;18.660;2022-11-11T07:20:02;1.15;;;0.85;;
59984;SDS011;45843;47.532;18.660;2022-11-11T07:23:15;0.20;;;0.20;;
59984;SDS011;45843;47.532;18.660;2022-11-11T07:26:16;0.52;;;0.40;;
59984;SDS011;45843;47.532;18.660;2022-11-11T07:29:22;0.50;;;0.50;;
59984;SDS011;45843;47.532;18.660;2022-11-11T07:31:49;0.35;;;0.35;;
59984;SDS011;45843;47.532;18.660;2022-11-11T07:34:15;0.50;;;0.50;;
59984;SDS011;45843;47.532;18.660;2022-11-11T07:36:42;0.57;;;0.57;;
59984;SDS011;45843;47.532;18.660;2022-11-11T07:39:08;0.13;;;0.13;;
59984;SDS011;45843;47.532;18.660;2022-11-11T07:41:35;0.20;;;0.20;;
59984;SDS011;45843;47.532;18.660;2022-11-11T07:44:02;0.30;;;0.30;;
59984;SDS011;45843;47.532;18.660;2022-11-11T07:46:28;0.10;;;0.10;;
59984;SDS011;45843;47.532;18.660;2022-11-11T07:48:54;0.30;;;0.22;;
59984;SDS011;45843;47.532;18.660;2022-11-11T07:51:21;0.22;;;0.22;;
59984;SDS011;45843;47.532;18.660;2022-11-11T07:53:47;0.45;;;0.45;;
59984;SDS011;45843;47.532;18.660;2022-11-11T07:56:13;0.30;;;0.30;;
59984;SDS011;45843;47.532;18.660;2022-11-11T07:58:40;0.20;;;0.20;;
59984;SDS011;45843;47.532;18.660;2022-11-11T08:01:06;0.73;;;0.73;;
59984;SDS011;45843;47.532;18.660;2022-11-11T08:03:33;0.30;;;0.30;;
59984;SDS011;45843;47.532;18.660;2022-11-11T08:06:00;0.22;;;0.22;;
59984;SDS011;45843;47.532;18.660;2022-11-11T08:08:27;0.10;;;0.10;;
59984;SDS011;45843;47.532;18.660;2022-11-11T08:11:33;0.10;;;0.10;;
59984;SDS011;45843;47.532;18.660;2022-11-11T08:14:38;0.10;;;0.10;;
59984;SDS011;45843;47.532;18.660;2022-11-11T08:17:45;0.30;;;0.30;;
59984;SDS011;45843;47.532;18.660;2022-11-11T08:20:51;0.10;;;0.10;;
59984;SDS011;45843;47.532;18.660;2022-11-11T08:23:17;0.20;;;0.20;;
59984;SDS011;45843;47.532;18.660;2022-11-11T08:25:50;0.10;;;0.10;;
59984;SDS011;45843;47.532;18.660;2022-11-11T08:28:56;0.10;;;0.10;;
59984;SDS011;45843;47.532;18.660;2022-11-11T08:32:03;0.10;;;0.10;;
59984;SDS011;45843;47.532;18.660;2022-11-11T08:35:09;0.00;;;0.00;;
59984;SDS011;45843;47.532;18.660;2022-11-11T08:37:35;0.10;;;0.10;;
59984;SDS011;45843;47.532;18.660;2022-11-11T08:40:41;0.38;;;0.38;;
59984;SDS011;45843;47.532;18.660;2022-11-11T08:43:51;0.20;;;0.20;;
59984;SDS011;45843;47.532;18.660;2022-11-11T08:46:56;0.00;;;0.00;;
59984;SDS011;45843;47.532;18.660;2022-11-11T08:50:03;0.10;;;0.10;;
59984;SDS011;45843;47.532;18.660;2022-11-11T08:53:08;0.10;;;0.10;;
59984;SDS011;45843;47.532;18.660;2022-11-11T08:56:14;0.10;;;0.10;;
59984;SDS011;45843;47.532;18.660;2022-11-11T08:59:21;0.10;;;0.10;;
59984;SDS011;45843;47.532;18.660;2022-11-11T09:02:27;0.10;;;0.10;;
59984;SDS011;45843;47.532;18.660;2022-11-11T09:05:33;0.10;;;0.10;;
59984;SDS011;45843;47.532;18.660;2022-11-11T09:08:43;0.00;;;0.00;;
59984;SDS011;45843;47.532;18.660;2022-11-11T09:11:09;0.10;;;0.10;;
59984;SDS011;45843;47.532;18.660;2022-11-11T09:13:38;0.08;;;0.08;;
59984;SDS011;45843;47.532;18.660;2022-11-11T09:16:05;0.10;;;0.10;;
59984;SDS011;45843;47.532;18.660;2022-11-11T09:18:31;0.10;;;0.10;;
59984;SDS011;45843;47.532;18.660;2022-11-11T09:20:58;0.08;;;0.08;;
59984;SDS011;45843;47.532;18.660;2022-11-11T09:23:25;0.08;;;0.08;;
59984;SDS011;45843;47.532;18.660;2022-11-11T09:25:51;0.10;;;0.10;;
59984;SDS011;45843;47.532;18.660;2022-11-11T09:28:18;0.00;;;0.00;;
59984;SDS011;45843;47.532;18.660;2022-11-11T09:30:44;0.10;;;0.10;;
59984;SDS011;45843;47.532;18.660;2022-11-11T09:33:11;0.10;;;0.10;;
59984;SDS011;45843;47.532;18.660;2022-11-11T09:35:40;0.00;;;0.00;;
59984;SDS011;45843;47.532;18.660;2022-11-11T09:38:06;0.00;;;0.00;;
59984;SDS011;45843;47.532;18.660;2022-11-11T09:40:35;0.00;;;0.00;;
59984;SDS011;45843;47.532;18.660;2022-11-11T09:51:55;0.10;;;0.10;;
59984;SDS011;45843;47.532;18.660;2022-11-11T09:55:02;0.10;;;0.10;;
59984;SDS011;45843;47.532;18.660;2022-11-11T09:57:36;0.10;;;0.10;;
59984;SDS011;45843;47.532;18.660;2022-11-11T10:00:42;0.17;;;0.17;;
59984;SDS011;45843;47.532;18.660;2022-11-11T10:03:50;0.10;;;0.10;;
59984;SDS011;45843;47.532;18.660;2022-11-11T10:06:56;0.20;;;0.13;;
59984;SDS011;45843;47.532;18.660;2022-11-11T10:10:37;0.00;;;0.00;;
59984;SDS011;45843;47.532;18.660;2022-11-11T10:13:19;0.00;;;0.00;;
59984;SDS011;45843;47.532;18.660;2022-11-11T10:22:18;0.08;;;0.08;;
59984;SDS011;45843;47.532;18.660;2022-11-11T10:27:55;0.00;;;0.00;;
59984;SDS011;45843;47.532;18.660;2022-11-11T10:31:00;0.00;;;0.00;;
59984;SDS011;45843;47.532;18.660;2022-11-11T10:34:10;0.08;;;0.08;;
59984;SDS011;45843;47.532;18.660;2022-11-11T10:37:20;0.00;;;0.00;;
59984;SDS011;45843;47.532;18.660;2022-11-11T10:40:26;0.10;;;0.10;;
59984;SDS011;45843;47.532;18.660;2022-11-11T10:43:31;0.10;;;0.10;;
59984;SDS011;45843;47.532;18.660;2022-11-11T10:46:38;0.00;;;0.00;;
59984;SDS011;45843;47.532;18.660;2022-11-11T10:49:47;0.00;;;0.00;;
59984;SDS011;45843;47.532;18.660;2022-11-11T10:52:53;0.00;;;0.00;;
59984;SDS011;45843;47.532;18.660;2022-11-11T10:58:42;0.00;;;0.00;;
59984;SDS011;45843;47.532;18.660;2022-11-11T11:01:13;0.05;;;0.05;;
59984;SDS011;45843;47.532;18.660;2022-11-11T11:07:45;0.00;;;0.00;;
59984;SDS011;45843;47.532;18.660;2022-11-11T11:10:40;0.00;;;0.00;;
59984;SDS011;45843;47.532;18.660;2022-11-11T11:13:35;0.00;;;0.00;;
59984;SDS011;45843;47.532;18.660;2022-11-11T11:16:15;0.03;;;0.03;;
59984;SDS011;45843;47.532;18.660;2022-11-11T11:18:42;0.00;;;0.00;;
59984;SDS011;45843;47.532;18.660;2022-11-11T11:21:09;0.00;;;0.00;;
59984;SDS011;45843;47.532;18.660;2022-11-11T11:26:02;0.08;;;0.08;;
59984;SDS011;45843;47.532;18.660;2022-11-11T11:28:29;0.00;;;0.00;;
59984;SDS011;45843;47.532;18.660;2022-11-11T11:31:00;0.00;;;0.00;;
59984;SDS011;45843;47.532;18.660;2022-11-11T11:33:27;0.10;;;0.10;;
59984;SDS011;45843;47.532;18.660;2022-11-11T11:36:16;0.00;;;0.00;;
59984;SDS011;45843;47.532;18.660;2022-11-11T11:38:44;0.00;;;0.00;;
59984;SDS011;45843;47.532;18.660;2022-11-11T11:41:15;0.10;;;0.10;;
59984;SDS011;45843;47.532;18.660;2022-11-11T11:43:43;0.00;;;0.00;;
59984;SDS011;45843;47.532;18.660;2022-11-11T11:46:53;0.00;;;0.00;;
59984;SDS011;45843;47.532;18.660;2022-11-11T11:51:56;0.00;;;0.00;;
59984;SDS011;45843;47.532;18.660;2022-11-11T11:55:02;0.00;;;0.00;;
59984;SDS011;45843;47.532;18.660;2022-11-11T11:57:22;0.10;;;0.10;;
59984;SDS011;45843;47.532;18.660;2022-11-11T12:00:12;0.10;;;0.10;;
59984;SDS011;45843;47.532;18.660;2022-11-11T12:05:26;0.10;;;0.10;;
59984;SDS011;45843;47.532;18.660;2022-11-11T12:11:11;0.10;;;0.10;;
59984;SDS011;45843;47.532;18.660;2022-11-11T12:19:24;0.10;;;0.10;;
59984;SDS011;45843;47.532;18.660;2022-11-11T12:25:22;0.00;;;0.00;;
59984;SDS011;45843;47.532;18.660;2022-11-11T12:27:58;0.00;;;0.00;;
59984;SDS011;45843;47.532;18.660;2022-11-11T12:30:27;0.00;;;0.00;;
59984;SDS011;45843;47.532;18.660;2022-11-11T12:41:05;0.10;;;0.10;;
59984;SDS011;45843;47.532;18.660;2022-11-11T12:46:11;0.00;;;0.00;;
59984;SDS011;45843;47.532;18.660;2022-11-11T12:51:53;0.00;;;0.00;;
59984;SDS011;45843;47.532;18.660;2022-11-11T12:54:28;0.00;;;0.00;;
59984;SDS011;45843;47.532;18.660;2022-11-11T12:59:39;0.00;;;0.00;;
59984;SDS011;45843;47.532;18.660;2022-11-11T13:02:15;0.10;;;0.10;;
59984;SDS011;45843;47.532;18.660;2022-11-11T13:05:12;0.00;;;0.00;;
59984;SDS011;45843;47.532;18.660;2022-11-11T13:13:33;0.00;;;0.00;;
59984;SDS011;45843;47.532;18.660;2022-11-11T13:16:03;0.10;;;0.10;;
59984;SDS011;45843;47.532;18.660;2022-11-11T13:20:59;0.00;;;0.00;;
59984;SDS011;45843;47.532;18.660;2022-11-11T13:23:28;0.10;;;0.10;;
59984;SDS011;45843;47.532;18.660;2022-11-11T13:26:01;0.00;;;0.00;;
59984;SDS011;45843;47.532;18.660;2022-11-11T13:28:34;0.10;;;0.10;;
59984;SDS011;45843;47.532;18.660;2022-11-11T13:31:36;0.10;;;0.10;;
59984;SDS011;45843;47.532;18.660;2022-11-11T13:34:42;0.10;;;0.10;;
59984;SDS011;45843;47.532;18.660;2022-11-11T13:37:32;0.10;;;0.10;;
59984;SDS011;45843;47.532;18.660;2022-11-11T13:40:01;0.05;;;0.05;;
59984;SDS011;45843;47.532;18.660;2022-11-11T13:43:13;0.10;;;0.10;;
59984;SDS011;45843;47.532;18.660;2022-11-11T13:45:41;0.00;;;0.00;;
59984;SDS011;45843;47.532;18.660;2022-11-11T13:48:18;0.10;;;0.10;;
59984;SDS011;45843;47.532;18.660;2022-11-11T13:50:46;0.13;;;0.13;;
59984;SDS011;45843;47.532;18.660;2022-11-11T13:53:52;0.00;;;0.00;;
59984;SDS011;45843;47.532;18.660;2022-11-11T13:57:14;0.10;;;0.10;;
59984;SDS011;45843;47.532;18.660;2022-11-11T13:59:48;0.00;;;0.00;;
59984;SDS011;45843;47.532;18.660;2022-11-11T14:12:43;0.03;;;0.03;;
59984;SDS011;45843;47.532;18.660;2022-11-11T14:15:49;0.10;;;0.10;;
59984;SDS011;45843;47.532;18.660;2022-11-11T14:20:55;0.10;;;0.10;;
59984;SDS011;45843;47.532;18.660;2022-11-11T14:28:54;0.00;;;0.00;;
59984;SDS011;45843;47.532;18.660;2022-11-11T14:32:11;0.05;;;0.05;;
59984;SDS011;45843;47.532;18.660;2022-11-11T14:37:17;0.05;;;0.05;;
59984;SDS011;45843;47.532;18.660;2022-11-11T14:40:27;0.00;;;0.00;;
59984;SDS011;45843;47.532;18.660;2022-11-11T14:43:50;0.05;;;0.05;;
59984;SDS011;45843;47.532;18.660;2022-11-11T14:46:29;0.00;;;0.00;;
59984;SDS011;45843;47.532;18.660;2022-11-11T14:48:56;0.00;;;0.00;;
59984;SDS011;45843;47.532;18.660;2022-11-11T14:52:02;0.00;;;0.00;;
59984;SDS011;45843;47.532;18.660;2022-11-11T14:54:33;0.10;;;0.10;;
59984;SDS011;45843;47.532;18.660;2022-11-11T14:57:03;0.03;;;0.03;;
59984;SDS011;45843;47.532;18.660;2022-11-11T14:59:32;0.10;;;0.10;;
59984;SDS011;45843;47.532;18.660;2022-11-11T15:02:41;0.00;;;0.00;;
59984;SDS011;45843;47.532;18.660;2022-11-11T15:05:58;0.00;;;0.00;;
59984;SDS011;45843;47.532;18.660;2022-11-11T15:08:24;0.10;;;0.10;;
59984;SDS011;45843;47.532;18.660;2022-11-11T15:13:21;0.00;;;0.00;;
59984;SDS011;45843;47.532;18.660;2022-11-11T15:22:01;0.00;;;0.00;;
59984;SDS011;45843;47.532;18.660;2022-11-11T15:25:51;0.00;;;0.00;;
59984;SDS011;45843;47.532;18.660;2022-11-11T15:27:54;0.13;;;0.13;;
59984;SDS011;45843;47.532;18.660;2022-11-11T15:30:21;0.10;;;0.10;;
59984;SDS011;45843;47.532;18.660;2022-11-11T15:33:31;0.10;;;0.10;;
59984;SDS011;45843;47.532;18.660;2022-11-11T15:39:25;0.00;;;0.00;;
59984;SDS011;45843;47.532;18.660;2022-11-11T15:41:52;0.00;;;0.00;;
59984;SDS011;45843;47.532;18.660;2022-11-11T15:46:46;0.00;;;0.00;;
59984;SDS011;45843;47.532;18.660;2022-11-11T15:49:14;0.00;;;0.00;;
59984;SDS011;45843;47.532;18.660;2022-11-11T15:51:40;0.10;;;0.10;;
59984;SDS011;45843;47.532;18.660;2022-11-11T15:54:47;0.00;;;0.00;;
59984;SDS011;45843;47.532;18.660;2022-11-11T15:57:53;0.20;;;0.20;;
59984;SDS011;45843;47.532;18.660;2022-11-11T16:01:00;0.00;;;0.00;;
59984;SDS011;45843;47.532;18.660;2022-11-11T16:03:49;0.15;;;0.10;;
59984;SDS011;45843;47.532;18.660;2022-11-11T16:06:16;0.10;;;0.10;;
59984;SDS011;45843;47.532;18.660;2022-11-11T16:08:43;0.10;;;0.10;;
59984;SDS011;45843;47.532;18.660;2022-11-11T16:11:11;0.20;;;0.20;;
59984;SDS011;45843;47.532;18.660;2022-11-11T16:13:44;0.10;;;0.10;;
59984;SDS011;45843;47.532;18.660;2022-11-11T16:16:21;0.10;;;0.10;;
59984;SDS011;45843;47.532;18.660;2022-11-11T16:18:57;0.10;;;0.10;;
59984;SDS011;45843;47.532;18.660;2022-11-11T16:21:27;0.10;;;0.10;;
59984;SDS011;45843;47.532;18.660;2022-11-11T16:23:54;0.00;;;0.00;;
59984;SDS011;45843;47.532;18.660;2022-11-11T16:26:22;0.10;;;0.10;;
59984;SDS011;45843;47.532;18.660;2022-11-11T16:28:50;0.15;;;0.15;;
59984;SDS011;45843;47.532;18.660;2022-11-11T16:33:56;0.08;;;0.08;;
59984;SDS011;45843;47.532;18.660;2022-11-11T16:36:22;0.10;;;0.10;;
59984;SDS011;45843;47.532;18.660;2022-11-11T16:38:49;0.00;;;0.00;;
59984;SDS011;45843;47.532;18.660;2022-11-11T16:41:29;0.10;;;0.10;;
59984;SDS011;45843;47.532;18.660;2022-11-11T16:45:13;0.00;;;0.00;;
59984;SDS011;45843;47.532;18.660;2022-11-11T16:47:47;0.10;;;0.10;;
59984;SDS011;45843;47.532;18.660;2022-11-11T16:50:51;0.20;;;0.20;;
59984;SDS011;45843;47.532;18.660;2022-11-11T16:53:48;0.00;;;0.00;;
59984;SDS011;45843;47.532;18.660;2022-11-11T16:56:51;0.03;;;0.03;;
59984;SDS011;45843;47.532;18.660;2022-11-11T16:59:57;0.00;;;0.00;;
59984;SDS011;45843;47.532;18.660;2022-11-11T17:03:06;0.15;;;0.15;;
59984;SDS011;45843;47.532;18.660;2022-11-11T17:05:46;0.03;;;0.03;;
59984;SDS011;45843;47.532;18.660;2022-11-11T17:10:58;0.10;;;0.10;;
59984;SDS011;45843;47.532;18.660;2022-11-11T17:13:25;0.10;;;0.10;;
59984;SDS011;45843;47.532;18.660;2022-11-11T17:15:52;0.10;;;0.10;;
59984;SDS011;45843;47.532;18.660;2022-11-11T17:18:19;0.10;;;0.10;;
59984;SDS011;45843;47.532;18.660;2022-11-11T17:20:46;0.10;;;0.10;;
59984;SDS011;45843;47.532;18.660;2022-11-11T17:23:13;0.10;;;0.10;;
59984;SDS011;45843;47.532;18.660;2022-11-11T17:25:39;0.10;;;0.10;;
59984;SDS011;45843;47.532;18.660;2022-11-11T17:28:05;0.20;;;0.20;;
59984;SDS011;45843;47.532;18.660;2022-11-11T17:30:32;0.05;;;0.05;;
59984;SDS011;45843;47.532;18.660;2022-11-11T17:32:58;0.10;;;0.10;;
59984;SDS011;45843;47.532;18.660;2022-11-11T17:35:25;0.10;;;0.10;;
59984;SDS011;45843;47.532;18.660;2022-11-11T17:37:51;0.10;;;0.10;;
59984;SDS011;45843;47.532;18.660;2022-11-11T17:40:17;0.00;;;0.00;;
59984;SDS011;45843;47.532;18.660;2022-11-11T17:42:44;0.20;;;0.20;;
59984;SDS011;45843;47.532;18.660;2022-11-11T17:45:10;0.10;;;0.10;;
59984;SDS011;45843;47.532;18.660;2022-11-11T17:47:37;0.10;;;0.10;;